sensor_id;sensor_type;location;lat;lon;timestamp;pressure;altitude;pressure_sealevel;temperature;humidity
18858;BME280;9558;50.178;8.370;2023-08-01T00:00:22;96984.84;;;16.26;100.00
18858;BME280;9558;50.178;8.370;2023-08-01T00:03:10;96983.50;;;16.23;100.00
18858;BME280;9558;50.178;8.370;2023-08-01T00:05:57;96988.97;;;16.21;100.00
18858;BME280;9558;50.178;8.370;2023-08-01T00:08:43;96971.50;;;16.22;100.00
18858;BME280;9558;50.178;8.370;2023-08-01T00:11:30;96978.50;;;16.21;100.00
18858;BME280;9558;50.178;8.370;2023-08-01T00:14:17;96970.44;;;16.23;100.00
18858;BME280;9558;50.178;8.370;2023-08-01T00:17:05;96953.22;;;16.22;100.00
18858;BME280;9558;50.178;8.370;2023-08-01T00:19:53;96945.31;;;16.17;100.00
18858;BME280;9558;50.178;8.370;2023-08-01T00:22:41;96932.81;;;16.19;100.00
18858;BME280;9558;50.178;8.370;2023-08-01T00:25:28;96929.16;;;16.20;100.00
18858;BME280;9558;50.178;8.370;2023-08-01T00:28:15;96929.66;;;16.17;100.00
18858;BME280;9558;50.178;8.370;2023-08-01T00:31:05;96926.03;;;16.18;100.00
18858;BME280;9558;50.178;8.370;2023-08-01T00:33:52;96913.50;;;16.20;100.00
18858;BME280;9558;50.178;8.370;2023-08-01T00:36:40;96908.53;;;16.18;100.00
18858;BME280;9558;50.178;8.370;2023-08-01T00:39:27;96906.47;;;16.20;100.00
18858;BME280;9558;50.178;8.370;2023-08-01T00:42:14;96893.66;;;16.19;100.00
18858;BME280;9558;50.178;8.370;2023-08-01T00:45:01;96883.00;;;16.20;100.00
18858;BME280;9558;50.178;8.370;2023-08-01T00:47:48;96871.75;;;16.20;100.00
18858;BME280;9558;50.178;8.370;2023-08-01T00:50:35;96879.56;;;16.20;100.00
18858;BME280;9558;50.178;8.370;2023-08-01T00:53:23;96871.75;;;16.20;100.00
18858;BME280;9558;50.178;8.370;2023-08-01T00:56:10;96875.94;;;16.21;100.00
18858;BME280;9558;50.178;8.370;2023-08-01T00:58:57;96871.75;;;16.20;100.00
18858;BME280;9558;50.178;8.370;2023-08-01T01:01:44;96866.84;;;16.23;100.00
18858;BME280;9558;50.178;8.370;2023-08-01T01:04:31;96861.63;;;16.23;100.00
18858;BME280;9558;50.178;8.370;2023-08-01T01:07:19;96858.75;;;16.25;100.00
18858;BME280;9558;50.178;8.370;2023-08-01T01:10:08;96855.59;;;16.23;100.00
18858;BME280;9558;50.178;8.370;2023-08-01T01:12:54;96850.69;;;16.27;100.00
18858;BME280;9558;50.178;8.370;2023-08-01T01:15:41;96839.44;;;16.26;100.00
18858;BME280;9558;50.178;8.370;2023-08-01T01:18:28;96847.50;;;16.24;100.00
18858;BME280;9558;50.178;8.370;2023-08-01T01:24:59;96814.91;;;16.27;100.00
18858;BME280;9558;50.178;8.370;2023-08-01T01:27:47;96814.16;;;16.27;100.00
18858;BME280;9558;50.178;8.370;2023-08-01T01:30:35;96818.09;;;16.29;100.00
18858;BME280;9558;50.178;8.370;2023-08-01T01:33:22;96807.91;;;16.28;100.00
18858;BME280;9558;50.178;8.370;2023-08-01T01:36:09;96802.47;;;16.34;100.00
18858;BME280;9558;50.178;8.370;2023-08-01T01:38:56;96799.84;;;16.34;100.00
18858;BME280;9558;50.178;8.370;2023-08-01T01:41:44;96795.72;;;16.38;100.00
18858;BME280;9558;50.178;8.370;2023-08-01T01:44:31;96786.88;;;16.39;100.00
18858;BME280;9558;50.178;8.370;2023-08-01T01:47:17;96780.63;;;16.40;100.00
18858;BME280;9558;50.178;8.370;2023-08-01T01:50:05;96793.66;;;16.40;100.00
18858;BME280;9558;50.178;8.370;2023-08-01T01:52:52;96779.56;;;16.41;100.00
18858;BME280;9558;50.178;8.370;2023-08-01T01:55:38;96780.66;;;16.46;100.00
18858;BME280;9558;50.178;8.370;2023-08-01T01:58:27;96781.13;;;16.42;100.00
18858;BME280;9558;50.178;8.370;2023-08-01T02:01:14;96777.50;;;16.44;100.00
18858;BME280;9558;50.178;8.370;2023-08-01T02:04:01;96768.63;;;16.45;100.00
18858;BME280;9558;50.178;8.370;2023-08-01T02:06:48;96775.41;;;16.46;100.00
18858;BME280;9558;50.178;8.370;2023-08-01T02:09:34;96751.41;;;16.49;100.00
18858;BME280;9558;50.178;8.370;2023-08-01T02:12:21;96748.81;;;16.49;100.00
18858;BME280;9558;50.178;8.370;2023-08-01T02:15:09;96750.41;;;16.50;100.00
18858;BME280;9558;50.178;8.370;2023-08-01T02:17:56;96735.75;;;16.49;100.00
18858;BME280;9558;50.178;8.370;2023-08-01T02:20:43;96734.72;;;16.50;100.00
18858;BME280;9558;50.178;8.370;2023-08-01T02:23:30;96713.34;;;16.53;100.00
18858;BME280;9558;50.178;8.370;2023-08-01T02:26:18;96714.63;;;16.50;100.00
18858;BME280;9558;50.178;8.370;2023-08-01T02:29:04;96715.66;;;16.49;100.00
18858;BME280;9558;50.178;8.370;2023-08-01T02:31:52;96712.81;;;16.51;100.00
18858;BME280;9558;50.178;8.370;2023-08-01T02:34:40;96709.38;;;16.50;100.00
18858;BME280;9558;50.178;8.370;2023-08-01T02:37:27;96702.63;;;16.54;100.00
18858;BME280;9558;50.178;8.370;2023-08-01T02:40:14;96711.28;;;16.55;100.00
18858;BME280;9558;50.178;8.370;2023-08-01T02:43:00;96704.75;;;16.57;100.00
18858;BME280;9558;50.178;8.370;2023-08-01T02:45:47;96687.53;;;16.56;100.00
18858;BME280;9558;50.178;8.370;2023-08-01T02:48:35;96684.66;;;16.58;100.00
18858;BME280;9558;50.178;8.370;2023-08-01T02:51:22;96677.06;;;16.56;100.00
18858;BME280;9558;50.178;8.370;2023-08-01T02:54:09;96681.03;;;16.59;100.00
18858;BME280;9558;50.178;8.370;2023-08-01T02:56:55;96681.81;;;16.59;100.00
18858;BME280;9558;50.178;8.370;2023-08-01T02:59:42;96670.56;;;16.59;100.00
18858;BME280;9558;50.178;8.370;2023-08-01T03:02:29;96682.31;;;16.56;100.00
18858;BME280;9558;50.178;8.370;2023-08-01T03:05:18;96678.16;;;16.61;100.00
18858;BME280;9558;50.178;8.370;2023-08-01T03:08:04;96690.66;;;16.58;100.00
18858;BME280;9558;50.178;8.370;2023-08-01T03:10:51;96702.69;;;16.59;100.00
18858;BME280;9558;50.178;8.370;2023-08-01T03:13:38;96697.72;;;16.58;100.00
18858;BME280;9558;50.178;8.370;2023-08-01T03:16:25;96699.81;;;16.61;100.00
18858;BME280;9558;50.178;8.370;2023-08-01T03:19:11;96694.09;;;16.64;100.00
18858;BME280;9558;50.178;8.370;2023-08-01T03:22:00;96677.41;;;16.65;100.00
18858;BME280;9558;50.178;8.370;2023-08-01T03:24:47;96699.88;;;16.66;100.00
18858;BME280;9558;50.178;8.370;2023-08-01T03:27:35;96685.25;;;16.70;100.00
18858;BME280;9558;50.178;8.370;2023-08-01T03:30:22;96687.34;;;16.68;100.00
18858;BME280;9558;50.178;8.370;2023-08-01T03:33:08;96678.72;;;16.68;100.00
18858;BME280;9558;50.178;8.370;2023-08-01T03:35:56;96660.19;;;16.69;100.00
18858;BME280;9558;50.178;8.370;2023-08-01T03:38:45;96663.88;;;16.73;100.00
18858;BME280;9558;50.178;8.370;2023-08-01T03:41:32;96657.84;;;16.73;100.00
18858;BME280;9558;50.178;8.370;2023-08-01T03:44:19;96650.06;;;16.78;100.00
18858;BME280;9558;50.178;8.370;2023-08-01T03:47:06;96638.81;;;16.78;100.00
18858;BME280;9558;50.178;8.370;2023-08-01T03:49:53;96655.22;;;16.73;100.00
18858;BME280;9558;50.178;8.370;2023-08-01T03:52:39;96638.78;;;16.72;100.00
18858;BME280;9558;50.178;8.370;2023-08-01T03:55:28;96626.75;;;16.71;100.00
18858;BME280;9558;50.178;8.370;2023-08-01T03:58:14;96643.75;;;16.74;100.00
18858;BME280;9558;50.178;8.370;2023-08-01T04:01:01;96647.94;;;16.75;100.00
18858;BME280;9558;50.178;8.370;2023-08-01T04:03:48;96656.53;;;16.70;100.00
18858;BME280;9558;50.178;8.370;2023-08-01T04:06:35;96656.53;;;16.70;100.00
18858;BME280;9558;50.178;8.370;2023-08-01T04:09:22;96665.69;;;16.73;100.00
18858;BME280;9558;50.178;8.370;2023-08-01T04:12:10;96658.16;;;16.76;100.00
18858;BME280;9558;50.178;8.370;2023-08-01T04:14:56;96662.56;;;16.76;100.00
18858;BME280;9558;50.178;8.370;2023-08-01T04:17:43;96652.66;;;16.78;100.00
18858;BME280;9558;50.178;8.370;2023-08-01T04:20:30;96641.97;;;16.80;100.00
18858;BME280;9558;50.178;8.370;2023-08-01T04:23:17;96635.72;;;16.81;100.00
18858;BME280;9558;50.178;8.370;2023-08-01T04:26:03;96638.31;;;16.86;100.00
18858;BME280;9558;50.178;8.370;2023-08-01T04:28:53;96634.16;;;16.85;100.00
18858;BME280;9558;50.178;8.370;2023-08-01T04:31:39;96642.00;;;16.85;100.00
18858;BME280;9558;50.178;8.370;2023-08-01T04:34:26;96647.75;;;16.87;100.00
18858;BME280;9558;50.178;8.370;2023-08-01T04:37:13;96649.09;;;16.89;100.00
18858;BME280;9558;50.178;8.370;2023-08-01T04:40:00;96627.09;;;16.85;100.00
18858;BME280;9558;50.178;8.370;2023-08-01T04:42:47;96634.16;;;16.85;100.00
18858;BME280;9558;50.178;8.370;2023-08-01T04:45:35;96635.47;;;16.87;100.00
18858;BME280;9558;50.178;8.370;2023-08-01T04:48:22;96619.53;;;16.84;100.00
18858;BME280;9558;50.178;8.370;2023-08-01T04:51:09;96603.84;;;16.84;100.00
18858;BME280;9558;50.178;8.370;2023-08-01T04:53:56;96618.22;;;16.86;100.00
18858;BME280;9558;50.178;8.370;2023-08-01T04:56:43;96618.53;;;16.90;100.00
18858;BME280;9558;50.178;8.370;2023-08-01T04:59:30;96620.63;;;16.88;100.00
18858;BME280;9558;50.178;8.370;2023-08-01T05:02:18;96606.50;;;16.89;100.00
18858;BME280;9558;50.178;8.370;2023-08-01T05:05:06;96584.03;;;16.88;100.00
18858;BME280;9558;50.178;8.370;2023-08-01T05:07:53;96571.97;;;16.87;100.00
18858;BME280;9558;50.178;8.370;2023-08-01T05:10:39;96625.78;;;16.83;100.00
18858;BME280;9558;50.178;8.370;2023-08-01T05:13:26;96614.81;;;16.81;100.00
18858;BME280;9558;50.178;8.370;2023-08-01T05:16:13;96610.88;;;16.83;100.00
18858;BME280;9558;50.178;8.370;2023-08-01T05:19:01;96611.66;;;16.79;100.00
18858;BME280;9558;50.178;8.370;2023-08-01T05:21:48;96622.91;;;16.79;100.00
18858;BME280;9558;50.178;8.370;2023-08-01T05:24:35;96615.06;;;16.79;100.00
18858;BME280;9558;50.178;8.370;2023-08-01T05:27:22;96604.88;;;16.78;100.00
18858;BME280;9558;50.178;8.370;2023-08-01T05:30:10;96615.59;;;16.81;100.00
18858;BME280;9558;50.178;8.370;2023-08-01T05:32:56;96614.00;;;16.80;100.00
18858;BME280;9558;50.178;8.370;2023-08-01T05:35:44;96625.25;;;16.81;100.00
18858;BME280;9558;50.178;8.370;2023-08-01T05:38:31;96607.75;;;16.81;100.00
18858;BME280;9558;50.178;8.370;2023-08-01T05:41:18;96592.84;;;16.76;100.00
18858;BME280;9558;50.178;8.370;2023-08-01T05:44:05;96596.78;;;16.79;100.00
18858;BME280;9558;50.178;8.370;2023-08-01T05:46:52;96614.50;;;16.77;100.00
18858;BME280;9558;50.178;8.370;2023-08-01T05:49:38;96630.19;;;16.77;100.00
18858;BME280;9558;50.178;8.370;2023-08-01T05:52:28;96639.84;;;16.76;100.00
18858;BME280;9558;50.178;8.370;2023-08-01T05:55:14;96639.31;;;16.74;100.00
18858;BME280;9558;50.178;8.370;2023-08-01T05:58:01;96638.28;;;16.75;100.00
18858;BME280;9558;50.178;8.370;2023-08-01T06:00:48;96655.53;;;16.76;100.00
18858;BME280;9558;50.178;8.370;2023-08-01T06:03:35;96667.56;;;16.78;100.00
18858;BME280;9558;50.178;8.370;2023-08-01T06:06:22;96671.19;;;16.76;100.00
18858;BME280;9558;50.178;8.370;2023-08-01T06:09:10;96677.97;;;16.72;100.00
18858;BME280;9558;50.178;8.370;2023-08-01T06:11:57;96683.16;;;16.67;100.00
18858;BME280;9558;50.178;8.370;2023-08-01T06:14:43;96680.50;;;16.62;100.00
18858;BME280;9558;50.178;8.370;2023-08-01T06:17:30;96685.94;;;16.55;100.00
18858;BME280;9558;50.178;8.370;2023-08-01T06:20:17;96702.31;;;16.46;100.00
18858;BME280;9558;50.178;8.370;2023-08-01T06:23:04;96707.97;;;16.32;100.00
18858;BME280;9558;50.178;8.370;2023-08-01T06:25:52;96707.31;;;16.20;100.00
18858;BME280;9558;50.178;8.370;2023-08-01T06:28:39;96696.25;;;16.08;100.00
18858;BME280;9558;50.178;8.370;2023-08-01T06:31:25;96712.88;;;16.01;100.00
18858;BME280;9558;50.178;8.370;2023-08-01T06:34:12;96707.38;;;15.98;100.00
18858;BME280;9558;50.178;8.370;2023-08-01T06:36:59;96722.72;;;15.94;100.00
18858;BME280;9558;50.178;8.370;2023-08-01T06:39:46;96725.34;;;15.94;100.00
18858;BME280;9558;50.178;8.370;2023-08-01T06:42:34;96723.22;;;15.91;100.00
18858;BME280;9558;50.178;8.370;2023-08-01T06:45:21;96730.31;;;15.96;100.00
18858;BME280;9558;50.178;8.370;2023-08-01T06:48:08;96741.34;;;16.03;100.00
18858;BME280;9558;50.178;8.370;2023-08-01T06:50:55;96746.91;;;16.12;100.00
18858;BME280;9558;50.178;8.370;2023-08-01T06:53:42;96753.28;;;16.21;100.00
18858;BME280;9558;50.178;8.370;2023-08-01T06:56:29;96744.41;;;16.22;100.00
18858;BME280;9558;50.178;8.370;2023-08-01T06:59:17;96747.84;;;16.28;100.00
18858;BME280;9558;50.178;8.370;2023-08-01T07:02:05;96744.25;;;16.34;100.00
18858;BME280;9558;50.178;8.370;2023-08-01T07:04:52;96747.44;;;16.41;100.00
18858;BME280;9558;50.178;8.370;2023-08-01T07:07:39;96736.75;;;16.42;100.00
18858;BME280;9558;50.178;8.370;2023-08-01T07:10:25;96722.19;;;16.47;100.00
18858;BME280;9558;50.178;8.370;2023-08-01T07:13:12;96724.47;;;16.43;100.00
18858;BME280;9558;50.178;8.370;2023-08-01T07:16:00;96731.03;;;16.46;100.00
18858;BME280;9558;50.178;8.370;2023-08-01T07:18:47;96727.91;;;16.49;100.00
18858;BME280;9558;50.178;8.370;2023-08-01T07:21:35;96730.28;;;16.50;100.00
18858;BME280;9558;50.178;8.370;2023-08-01T07:24:22;96732.44;;;16.53;100.00
18858;BME280;9558;50.178;8.370;2023-08-01T07:27:09;96739.50;;;16.58;100.00
18858;BME280;9558;50.178;8.370;2023-08-01T07:29:57;96734.31;;;16.63;100.00
18858;BME280;9558;50.178;8.370;2023-08-01T07:32:45;96740.03;;;16.60;100.00
18858;BME280;9558;50.178;8.370;2023-08-01T07:35:33;96746.91;;;16.71;100.00
18858;BME280;9558;50.178;8.370;2023-08-01T07:38:20;96745.06;;;17.04;100.00
18858;BME280;9558;50.178;8.370;2023-08-01T07:41:06;96750.72;;;17.87;100.00
18858;BME280;9558;50.178;8.370;2023-08-01T07:43:53;96761.34;;;18.79;100.00
18858;BME280;9558;50.178;8.370;2023-08-01T07:46:42;96766.16;;;19.79;100.00
18858;BME280;9558;50.178;8.370;2023-08-01T07:49:31;96769.75;;;20.83;100.00
18858;BME280;9558;50.178;8.370;2023-08-01T07:52:17;96773.97;;;21.86;100.00
18858;BME280;9558;50.178;8.370;2023-08-01T07:55:05;96780.22;;;22.71;95.90
18858;BME280;9558;50.178;8.370;2023-08-01T07:57:52;96782.16;;;23.59;88.78
18858;BME280;9558;50.178;8.370;2023-08-01T08:00:39;96786.94;;;24.36;84.27
18858;BME280;9558;50.178;8.370;2023-08-01T08:03:26;96794.91;;;25.04;79.45
18858;BME280;9558;50.178;8.370;2023-08-01T08:06:14;96806.03;;;25.55;70.65
18858;BME280;9558;50.178;8.370;2023-08-01T08:09:01;96799.19;;;26.02;70.84
18858;BME280;9558;50.178;8.370;2023-08-01T08:11:48;96798.31;;;26.51;66.47
18858;BME280;9558;50.178;8.370;2023-08-01T08:14:35;96805.59;;;27.06;67.67
18858;BME280;9558;50.178;8.370;2023-08-01T08:17:23;96806.88;;;27.48;64.62
18858;BME280;9558;50.178;8.370;2023-08-01T08:20:10;96788.38;;;27.90;59.65
18858;BME280;9558;50.178;8.370;2023-08-01T08:22:58;96805.16;;;28.12;57.97
18858;BME280;9558;50.178;8.370;2023-08-01T08:25:45;96804.78;;;28.64;60.98
18858;BME280;9558;50.178;8.370;2023-08-01T08:28:33;96807.84;;;28.87;58.26
18858;BME280;9558;50.178;8.370;2023-08-01T08:31:20;96815.06;;;28.87;57.28
18858;BME280;9558;50.178;8.370;2023-08-01T08:34:07;96820.75;;;29.31;57.47
18858;BME280;9558;50.178;8.370;2023-08-01T08:36:53;96828.06;;;29.46;54.95
18858;BME280;9558;50.178;8.370;2023-08-01T08:39:42;96833.09;;;29.85;55.05
18858;BME280;9558;50.178;8.370;2023-08-01T08:42:29;96816.66;;;29.95;55.90
18858;BME280;9558;50.178;8.370;2023-08-01T08:45:19;96817.41;;;29.59;56.65
18858;BME280;9558;50.178;8.370;2023-08-01T08:48:09;96826.69;;;29.16;56.40
18858;BME280;9558;50.178;8.370;2023-08-01T08:51:00;96821.97;;;28.24;58.45
18858;BME280;9558;50.178;8.370;2023-08-01T08:53:49;96821.91;;;28.33;57.38
18858;BME280;9558;50.178;8.370;2023-08-01T08:56:41;96825.41;;;28.46;57.48
18858;BME280;9558;50.178;8.370;2023-08-01T08:59:29;96817.25;;;28.72;56.54
18858;BME280;9558;50.178;8.370;2023-08-01T09:02:17;96820.78;;;29.22;57.42
18858;BME280;9558;50.178;8.370;2023-08-01T09:05:04;96829.00;;;29.75;56.68
18858;BME280;9558;50.178;8.370;2023-08-01T09:07:51;96830.44;;;29.73;55.66
18858;BME280;9558;50.178;8.370;2023-08-01T09:10:41;96833.22;;;29.89;53.29
18858;BME280;9558;50.178;8.370;2023-08-01T09:13:29;96833.16;;;29.39;52.64
18858;BME280;9558;50.178;8.370;2023-08-01T09:16:16;96830.75;;;28.67;53.27
18858;BME280;9558;50.178;8.370;2023-08-01T09:19:05;96831.94;;;27.76;54.13
18858;BME280;9558;50.178;8.370;2023-08-01T09:21:53;96826.69;;;26.94;56.86
18858;BME280;9558;50.178;8.370;2023-08-01T09:24:50;96828.72;;;26.27;59.27
18858;BME280;9558;50.178;8.370;2023-08-01T09:27:37;96826.41;;;25.77;59.65
18858;BME280;9558;50.178;8.370;2023-08-01T09:30:26;96830.78;;;25.41;64.62
18858;BME280;9558;50.178;8.370;2023-08-01T09:33:13;96832.88;;;25.08;64.15
18858;BME280;9558;50.178;8.370;2023-08-01T09:36:00;96830.09;;;24.81;68.09
18858;BME280;9558;50.178;8.370;2023-08-01T09:38:50;96831.72;;;24.69;65.76
18858;BME280;9558;50.178;8.370;2023-08-01T09:41:37;96832.63;;;24.50;67.16
18858;BME280;9558;50.178;8.370;2023-08-01T09:44:25;96834.25;;;24.23;67.33
18858;BME280;9558;50.178;8.370;2023-08-01T09:47:13;96840.25;;;23.87;69.06
18858;BME280;9558;50.178;8.370;2023-08-01T09:50:03;96841.38;;;23.53;68.94
18858;BME280;9558;50.178;8.370;2023-08-01T09:52:49;96849.50;;;23.10;71.75
18858;BME280;9558;50.178;8.370;2023-08-01T09:55:39;96849.63;;;22.67;71.64
18858;BME280;9558;50.178;8.370;2023-08-01T09:58:31;96852.69;;;22.36;71.80
18858;BME280;9558;50.178;8.370;2023-08-01T10:01:20;96849.78;;;22.13;73.16
18858;BME280;9558;50.178;8.370;2023-08-01T10:04:08;96853.09;;;22.00;73.34
18858;BME280;9558;50.178;8.370;2023-08-01T10:06:58;96847.44;;;21.87;76.71
18858;BME280;9558;50.178;8.370;2023-08-01T10:09:46;96851.78;;;21.78;76.71
18858;BME280;9558;50.178;8.370;2023-08-01T10:12:34;96852.63;;;21.73;77.21
18858;BME280;9558;50.178;8.370;2023-08-01T10:15:23;96843.97;;;21.68;79.40
18858;BME280;9558;50.178;8.370;2023-08-01T10:18:10;96845.53;;;21.69;78.40
18858;BME280;9558;50.178;8.370;2023-08-01T10:20:59;96848.63;;;21.76;78.84
18858;BME280;9558;50.178;8.370;2023-08-01T10:23:47;96847.84;;;21.75;76.48
18858;BME280;9558;50.178;8.370;2023-08-01T10:26:34;96856.03;;;21.74;77.25
18858;BME280;9558;50.178;8.370;2023-08-01T10:29:21;96862.41;;;21.68;72.48
18858;BME280;9558;50.178;8.370;2023-08-01T10:32:09;96858.69;;;21.69;73.45
18858;BME280;9558;50.178;8.370;2023-08-01T10:34:56;96869.31;;;21.64;74.46
18858;BME280;9558;50.178;8.370;2023-08-01T10:37:45;96865.81;;;21.68;73.57
18858;BME280;9558;50.178;8.370;2023-08-01T10:40:33;96871.25;;;21.77;75.28
18858;BME280;9558;50.178;8.370;2023-08-01T10:43:20;96878.00;;;21.88;76.51
18858;BME280;9558;50.178;8.370;2023-08-01T10:46:07;96872.28;;;22.05;75.03
18858;BME280;9558;50.178;8.370;2023-08-01T10:48:54;96867.66;;;22.16;75.18
18858;BME280;9558;50.178;8.370;2023-08-01T10:51:41;96861.75;;;22.24;75.92
18858;BME280;9558;50.178;8.370;2023-08-01T10:54:29;96874.72;;;22.21;74.10
18858;BME280;9558;50.178;8.370;2023-08-01T10:57:17;96880.81;;;22.16;72.79
18858;BME280;9558;50.178;8.370;2023-08-01T11:00:06;96878.66;;;21.99;72.41
18858;BME280;9558;50.178;8.370;2023-08-01T11:02:55;96882.31;;;21.79;75.27
18858;BME280;9558;50.178;8.370;2023-08-01T11:05:41;96874.22;;;21.70;73.79
18858;BME280;9558;50.178;8.370;2023-08-01T11:08:34;96869.84;;;21.61;73.42
18858;BME280;9558;50.178;8.370;2023-08-01T11:11:22;96864.44;;;21.47;73.81
18858;BME280;9558;50.178;8.370;2023-08-01T11:14:11;96874.72;;;21.43;73.67
18858;BME280;9558;50.178;8.370;2023-08-01T11:16:58;96876.78;;;21.51;74.26
18858;BME280;9558;50.178;8.370;2023-08-01T11:19:46;96878.25;;;21.63;74.43
18858;BME280;9558;50.178;8.370;2023-08-01T11:22:32;96874.00;;;21.67;75.04
18858;BME280;9558;50.178;8.370;2023-08-01T11:25:21;96889.69;;;21.77;77.33
18858;BME280;9558;50.178;8.370;2023-08-01T11:28:18;96875.91;;;21.85;73.59
18858;BME280;9558;50.178;8.370;2023-08-01T11:31:11;96884.75;;;21.95;73.32
18858;BME280;9558;50.178;8.370;2023-08-01T11:33:58;96882.66;;;21.97;71.90
18858;BME280;9558;50.178;8.370;2023-08-01T11:36:45;96901.69;;;21.88;71.18
18858;BME280;9558;50.178;8.370;2023-08-01T11:39:32;96927.34;;;21.78;74.77
18858;BME280;9558;50.178;8.370;2023-08-01T11:42:19;96949.44;;;21.47;77.17
18858;BME280;9558;50.178;8.370;2023-08-01T11:45:11;96937.28;;;21.17;78.42
18858;BME280;9558;50.178;8.370;2023-08-01T11:47:58;96931.47;;;20.80;80.33
18858;BME280;9558;50.178;8.370;2023-08-01T11:50:45;96922.13;;;20.53;82.05
18858;BME280;9558;50.178;8.370;2023-08-01T11:53:32;96923.78;;;20.34;85.19
18858;BME280;9558;50.178;8.370;2023-08-01T11:56:24;96923.84;;;20.13;84.82
18858;BME280;9558;50.178;8.370;2023-08-01T11:59:11;96927.81;;;20.00;86.05
18858;BME280;9558;50.178;8.370;2023-08-01T12:02:00;96927.34;;;19.88;86.00
18858;BME280;9558;50.178;8.370;2023-08-01T12:04:46;96929.19;;;19.82;86.67
18858;BME280;9558;50.178;8.370;2023-08-01T12:07:33;96917.38;;;19.80;86.92
18858;BME280;9558;50.178;8.370;2023-08-01T12:10:20;96923.94;;;19.82;86.78
18858;BME280;9558;50.178;8.370;2023-08-01T12:13:19;96933.91;;;19.85;89.03
18858;BME280;9558;50.178;8.370;2023-08-01T12:16:06;96939.16;;;19.91;87.73
18858;BME280;9558;50.178;8.370;2023-08-01T12:18:54;96934.41;;;19.98;89.24
18858;BME280;9558;50.178;8.370;2023-08-01T12:21:41;96947.00;;;19.96;89.93
18858;BME280;9558;50.178;8.370;2023-08-01T12:24:27;96960.13;;;19.96;89.29
18858;BME280;9558;50.178;8.370;2023-08-01T12:27:14;96965.38;;;19.96;89.83
18858;BME280;9558;50.178;8.370;2023-08-01T12:30:01;96957.25;;;19.87;89.02
18858;BME280;9558;50.178;8.370;2023-08-01T12:32:48;96941.25;;;19.83;89.23
18858;BME280;9558;50.178;8.370;2023-08-01T12:35:38;96942.84;;;19.79;89.37
18858;BME280;9558;50.178;8.370;2023-08-01T12:38:25;96940.44;;;19.78;89.64
18858;BME280;9558;50.178;8.370;2023-08-01T12:41:12;96937.03;;;19.77;88.83
18858;BME280;9558;50.178;8.370;2023-08-01T12:43:59;96942.81;;;19.84;88.55
18858;BME280;9558;50.178;8.370;2023-08-01T12:46:46;96936.50;;;19.96;91.56
18858;BME280;9558;50.178;8.370;2023-08-01T12:49:32;96933.56;;;20.13;90.09
18858;BME280;9558;50.178;8.370;2023-08-01T12:52:23;96932.75;;;20.23;89.70
18858;BME280;9558;50.178;8.370;2023-08-01T12:55:11;96916.41;;;20.36;88.53
18858;BME280;9558;50.178;8.370;2023-08-01T12:57:58;96918.47;;;20.44;88.90
18858;BME280;9558;50.178;8.370;2023-08-01T13:00:45;96915.31;;;20.47;87.69
18858;BME280;9558;50.178;8.370;2023-08-01T13:03:32;96908.16;;;20.58;88.00
18858;BME280;9558;50.178;8.370;2023-08-01T13:06:19;96913.13;;;20.65;87.79
18858;BME280;9558;50.178;8.370;2023-08-01T13:09:07;96911.53;;;20.69;85.81
18858;BME280;9558;50.178;8.370;2023-08-01T13:11:54;96920.94;;;20.80;86.38
18858;BME280;9558;50.178;8.370;2023-08-01T13:14:42;96913.78;;;20.91;86.16
18858;BME280;9558;50.178;8.370;2023-08-01T13:17:28;96910.81;;;21.03;86.07
18858;BME280;9558;50.178;8.370;2023-08-01T13:20:16;96917.31;;;21.16;85.86
18858;BME280;9558;50.178;8.370;2023-08-01T13:23:03;96923.38;;;21.16;83.51
18858;BME280;9558;50.178;8.370;2023-08-01T13:25:51;96940.41;;;21.24;85.13
18858;BME280;9558;50.178;8.370;2023-08-01T13:28:38;96959.94;;;21.13;90.93
18858;BME280;9558;50.178;8.370;2023-08-01T13:31:25;96989.78;;;20.93;91.55
18858;BME280;9558;50.178;8.370;2023-08-01T13:34:13;96990.13;;;20.70;91.99
18858;BME280;9558;50.178;8.370;2023-08-01T13:37:00;96987.84;;;20.48;95.96
18858;BME280;9558;50.178;8.370;2023-08-01T13:39:47;96996.31;;;20.30;96.52
18858;BME280;9558;50.178;8.370;2023-08-01T13:42:35;96992.94;;;20.14;96.56
18858;BME280;9558;50.178;8.370;2023-08-01T13:45:22;96989.00;;;20.01;97.22
18858;BME280;9558;50.178;8.370;2023-08-01T13:48:09;96987.44;;;19.90;98.38
18858;BME280;9558;50.178;8.370;2023-08-01T13:50:57;96986.41;;;19.80;100.00
18858;BME280;9558;50.178;8.370;2023-08-01T13:53:44;96976.97;;;19.79;99.51
18858;BME280;9558;50.178;8.370;2023-08-01T13:56:30;96973.00;;;19.77;100.00
18858;BME280;9558;50.178;8.370;2023-08-01T13:59:18;96966.97;;;19.76;100.00
18858;BME280;9558;50.178;8.370;2023-08-01T14:02:05;96973.00;;;19.77;100.00
18858;BME280;9558;50.178;8.370;2023-08-01T14:04:52;96986.41;;;19.80;100.00
18858;BME280;9558;50.178;8.370;2023-08-01T14:07:39;96990.59;;;19.81;100.00
18858;BME280;9558;50.178;8.370;2023-08-01T14:10:26;96991.63;;;19.96;100.00
18858;BME280;9558;50.178;8.370;2023-08-01T14:13:12;96986.13;;;20.08;100.00
18858;BME280;9558;50.178;8.370;2023-08-01T14:16:01;96980.31;;;20.21;100.00
18858;BME280;9558;50.178;8.370;2023-08-01T14:18:48;96984.75;;;20.31;100.00
18858;BME280;9558;50.178;8.370;2023-08-01T14:21:35;96987.09;;;20.32;100.00
18858;BME280;9558;50.178;8.370;2023-08-01T14:24:22;96998.38;;;20.38;100.00
18858;BME280;9558;50.178;8.370;2023-08-01T14:27:09;97000.97;;;20.43;100.00
18858;BME280;9558;50.178;8.370;2023-08-01T14:29:55;97004.69;;;20.37;100.00
18858;BME280;9558;50.178;8.370;2023-08-01T14:32:43;97009.44;;;20.30;100.00
18858;BME280;9558;50.178;8.370;2023-08-01T14:35:31;97025.50;;;20.18;100.00
18858;BME280;9558;50.178;8.370;2023-08-01T14:38:18;97027.34;;;20.12;100.00
18858;BME280;9558;50.178;8.370;2023-08-01T14:41:05;97018.16;;;20.10;100.00
18858;BME280;9558;50.178;8.370;2023-08-01T14:43:52;97015.78;;;20.08;100.00
18858;BME280;9558;50.178;8.370;2023-08-01T14:46:38;97008.19;;;20.07;100.00
18858;BME280;9558;50.178;8.370;2023-08-01T14:49:27;97010.53;;;20.08;100.00
18858;BME280;9558;50.178;8.370;2023-08-01T14:52:14;97012.38;;;20.08;100.00
18858;BME280;9558;50.178;8.370;2023-08-01T14:55:01;96995.28;;;20.10;100.00